sensor_id;sensor_type;location;lat;lon;timestamp;pressure;altitude;pressure_sealevel;temperature;humidity
35758;BME280;21879;50.110;18.900;2023-08-06T00:06:38;97386.41;;;19.53;79.29
35758;BME280;21879;50.110;18.900;2023-08-06T00:17:06;97342.37;;;19.53;79.15
35758;BME280;21879;50.110;18.900;2023-08-06T00:27:35;97270.20;;;19.41;79.44
35758;BME280;21879;50.110;18.900;2023-08-06T00:38:03;97198.81;;;19.38;79.49
35758;BME280;21879;50.110;18.900;2023-08-06T00:48:32;97232.30;;;19.38;79.75
35758;BME280;21879;50.110;18.900;2023-08-06T00:59:00;97209.60;;;19.51;80.03
35758;BME280;21879;50.110;18.900;2023-08-06T01:09:38;97144.41;;;19.55;79.85
35758;BME280;21879;50.110;18.900;2023-08-06T01:20:12;97171.06;;;19.47;80.02
35758;BME280;21879;50.110;18.900;2023-08-06T01:30:42;97165.19;;;19.48;79.91
35758;BME280;21879;50.110;18.900;2023-08-06T01:41:10;97139.66;;;19.68;80.41
35758;BME280;21879;50.110;18.900;2023-08-06T01:51:38;97110.34;;;19.88;80.14
35758;BME280;21879;50.110;18.900;2023-08-06T02:02:07;97107.56;;;19.97;79.83
35758;BME280;21879;50.110;18.900;2023-08-06T02:12:34;97114.88;;;19.99;79.51
35758;BME280;21879;50.110;18.900;2023-08-06T02:23:02;97115.77;;;20.06;79.43
35758;BME280;21879;50.110;18.900;2023-08-06T02:33:30;97092.86;;;20.20;79.11
35758;BME280;21879;50.110;18.900;2023-08-06T02:43:59;97079.41;;;20.15;78.69
35758;BME280;21879;50.110;18.900;2023-08-06T02:54:27;97072.60;;;20.19;78.84
35758;BME280;21879;50.110;18.900;2023-08-06T03:04:55;97051.52;;;20.25;78.67
35758;BME280;21879;50.110;18.900;2023-08-06T03:15:22;97057.77;;;20.36;78.39
35758;BME280;21879;50.110;18.900;2023-08-06T03:25:50;97054.52;;;20.39;77.85
35758;BME280;21879;50.110;18.900;2023-08-06T03:36:17;97047.48;;;20.20;77.66
35758;BME280;21879;50.110;18.900;2023-08-06T03:46:45;97041.47;;;19.99;78.13
35758;BME280;21879;50.110;18.900;2023-08-06T03:57:14;97042.10;;;19.76;78.38
35758;BME280;21879;50.110;18.900;2023-08-06T04:07:42;97040.64;;;19.49;78.80
35758;BME280;21879;50.110;18.900;2023-08-06T04:18:10;97043.34;;;19.29;79.14
35758;BME280;21879;50.110;18.900;2023-08-06T04:28:37;97015.39;;;19.20;79.82
35758;BME280;21879;50.110;18.900;2023-08-06T04:39:05;96986.27;;;19.38;80.31
35758;BME280;21879;50.110;18.900;2023-08-06T04:49:32;96974.04;;;19.54;79.90
35758;BME280;21879;50.110;18.900;2023-08-06T05:00:00;96980.77;;;19.58;79.43
35758;BME280;21879;50.110;18.900;2023-08-06T05:10:28;96973.11;;;19.52;78.62
35758;BME280;21879;50.110;18.900;2023-08-06T05:20:56;96974.36;;;19.32;77.98
35758;BME280;21879;50.110;18.900;2023-08-06T05:31:24;96971.48;;;19.06;77.66
35758;BME280;21879;50.110;18.900;2023-08-06T05:41:52;96963.37;;;18.84;76.93
35758;BME280;21879;50.110;18.900;2023-08-06T05:52:20;96961.50;;;18.73;76.59
35758;BME280;21879;50.110;18.900;2023-08-06T06:02:48;96937.82;;;18.59;76.22
35758;BME280;21879;50.110;18.900;2023-08-06T06:13:16;96920.80;;;18.43;76.10
35758;BME280;21879;50.110;18.900;2023-08-06T06:23:43;96909.73;;;18.25;76.08
35758;BME280;21879;50.110;18.900;2023-08-06T06:34:11;96900.02;;;18.15;76.09
35758;BME280;21879;50.110;18.900;2023-08-06T06:44:39;96893.08;;;18.11;76.29
35758;BME280;21879;50.110;18.900;2023-08-06T06:55:07;96888.36;;;18.03;76.05
35758;BME280;21879;50.110;18.900;2023-08-06T07:05:35;96892.42;;;17.93;75.98
35758;BME280;21879;50.110;18.900;2023-08-06T07:16:03;96902.42;;;17.91;76.08
35758;BME280;21879;50.110;18.900;2023-08-06T07:26:33;96913.88;;;17.77;75.70
35758;BME280;21879;50.110;18.900;2023-08-06T07:37:01;96931.73;;;17.75;75.74
35758;BME280;21879;50.110;18.900;2023-08-06T07:47:29;96898.30;;;17.65;75.46
35758;BME280;21879;50.110;18.900;2023-08-06T07:57:57;96896.67;;;17.50;75.10
35758;BME280;21879;50.110;18.900;2023-08-06T08:08:24;96901.89;;;17.40;75.19
35758;BME280;21879;50.110;18.900;2023-08-06T08:18:52;96898.98;;;17.31;75.26
35758;BME280;21879;50.110;18.900;2023-08-06T08:29:22;96908.77;;;17.37;75.47
35758;BME280;21879;50.110;18.900;2023-08-06T08:39:50;96895.96;;;17.44;75.46
35758;BME280;21879;50.110;18.900;2023-08-06T08:50:19;96893.63;;;17.48;75.45
35758;BME280;21879;50.110;18.900;2023-08-06T09:00:47;96908.26;;;17.50;75.08
35758;BME280;21879;50.110;18.900;2023-08-06T09:11:15;96909.25;;;17.43;74.95
35758;BME280;21879;50.110;18.900;2023-08-06T09:21:45;96907.92;;;17.44;74.95
35758;BME280;21879;50.110;18.900;2023-08-06T09:32:14;96898.09;;;17.39;74.74
35758;BME280;21879;50.110;18.900;2023-08-06T09:42:45;96887.47;;;17.29;74.79
35758;BME280;21879;50.110;18.900;2023-08-06T09:53:13;96915.80;;;17.26;74.68
35758;BME280;21879;50.110;18.900;2023-08-06T10:03:42;96927.39;;;17.29;74.87
35758;BME280;21879;50.110;18.900;2023-08-06T10:14:13;96932.25;;;17.38;74.77
35758;BME280;21879;50.110;18.900;2023-08-06T10:24:52;96933.73;;;17.40;74.75
35758;BME280;21879;50.110;18.900;2023-08-06T10:35:36;96954.20;;;17.40;74.97
35758;BME280;21879;50.110;18.900;2023-08-06T10:46:09;96963.14;;;17.46;74.83
35758;BME280;21879;50.110;18.900;2023-08-06T10:56:41;96962.28;;;17.38;74.48
35758;BME280;21879;50.110;18.900;2023-08-06T11:07:09;96958.55;;;17.35;74.94
35758;BME280;21879;50.110;18.900;2023-08-06T11:17:39;96985.60;;;17.30;74.73
35758;BME280;21879;50.110;18.900;2023-08-06T11:28:07;96985.92;;;17.25;75.00
35758;BME280;21879;50.110;18.900;2023-08-06T11:38:35;96987.89;;;17.25;75.08
35758;BME280;21879;50.110;18.900;2023-08-06T11:49:03;96990.73;;;17.19;75.19
35758;BME280;21879;50.110;18.900;2023-08-06T11:59:31;97005.10;;;17.22;75.47
35758;BME280;21879;50.110;18.900;2023-08-06T12:09:59;97020.99;;;17.23;75.39
35758;BME280;21879;50.110;18.900;2023-08-06T12:20:26;97034.66;;;17.24;75.38
35758;BME280;21879;50.110;18.900;2023-08-06T12:30:55;97047.48;;;17.21;75.36
35758;BME280;21879;50.110;18.900;2023-08-06T12:41:22;97049.17;;;17.25;75.61
35758;BME280;21879;50.110;18.900;2023-08-06T12:51:51;97039.69;;;17.25;75.51
35758;BME280;21879;50.110;18.900;2023-08-06T13:02:19;97021.05;;;17.25;75.75
35758;BME280;21879;50.110;18.900;2023-08-06T13:12:47;97037.48;;;17.29;75.77
35758;BME280;21879;50.110;18.900;2023-08-06T13:23:14;97046.69;;;17.31;75.69
35758;BME280;21879;50.110;18.900;2023-08-06T13:33:42;97061.20;;;17.29;75.73
35758;BME280;21879;50.110;18.900;2023-08-06T13:44:11;97074.77;;;17.20;75.80
35758;BME280;21879;50.110;18.900;2023-08-06T13:54:41;97080.66;;;17.13;75.93
35758;BME280;21879;50.110;18.900;2023-08-06T14:05:09;97074.58;;;17.06;76.26
35758;BME280;21879;50.110;18.900;2023-08-06T14:15:36;97071.10;;;17.17;76.37
35758;BME280;21879;50.110;18.900;2023-08-06T14:26:06;97104.68;;;17.25;75.94
35758;BME280;21879;50.110;18.900;2023-08-06T14:36:34;97123.03;;;17.32;75.70
35758;BME280;21879;50.110;18.900;2023-08-06T14:47:01;97136.12;;;17.31;75.39
35758;BME280;21879;50.110;18.900;2023-08-06T14:57:29;97147.00;;;17.33;75.38
35758;BME280;21879;50.110;18.900;2023-08-06T15:07:57;97156.16;;;17.30;75.06
35758;BME280;21879;50.110;18.900;2023-08-06T15:18:25;97153.72;;;17.18;75.09
35758;BME280;21879;50.110;18.900;2023-08-06T15:28:53;97148.02;;;17.08;74.82
35758;BME280;21879;50.110;18.900;2023-08-06T15:39:20;97157.64;;;17.00;74.83
35758;BME280;21879;50.110;18.900;2023-08-06T15:49:48;97180.64;;;17.06;74.68
35758;BME280;21879;50.110;18.900;2023-08-06T16:00:16;97201.76;;;17.11;74.51
35758;BME280;21879;50.110;18.900;2023-08-06T16:10:44;97225.79;;;17.17;74.27
35758;BME280;21879;50.110;18.900;2023-08-06T16:21:11;97248.98;;;17.14;73.89
35758;BME280;21879;50.110;18.900;2023-08-06T16:31:39;97264.65;;;17.08;73.35
35758;BME280;21879;50.110;18.900;2023-08-06T16:42:07;97281.30;;;16.96;73.35
35758;BME280;21879;50.110;18.900;2023-08-06T16:52:35;97298.10;;;16.88;73.46
35758;BME280;21879;50.110;18.900;2023-08-06T17:03:03;97311.14;;;16.90;73.49
35758;BME280;21879;50.110;18.900;2023-08-06T17:13:31;97324.29;;;16.97;73.27
35758;BME280;21879;50.110;18.900;2023-08-06T17:23:59;97327.00;;;16.89;72.92
35758;BME280;21879;50.110;18.900;2023-08-06T17:34:26;97334.90;;;16.83;72.75
35758;BME280;21879;50.110;18.900;2023-08-06T17:44:55;97340.22;;;16.76;72.85
35758;BME280;21879;50.110;18.900;2023-08-06T17:55:22;97349.02;;;16.81;73.13
35758;BME280;21879;50.110;18.900;2023-08-06T18:05:57;97358.89;;;16.78;72.80
35758;BME280;21879;50.110;18.900;2023-08-06T18:16:25;97357.44;;;16.68;72.60
35758;BME280;21879;50.110;18.900;2023-08-06T18:26:53;97359.02;;;16.59;72.96
35758;BME280;21879;50.110;18.900;2023-08-06T18:37:22;97356.73;;;16.62;73.68
35758;BME280;21879;50.110;18.900;2023-08-06T18:47:49;97358.61;;;16.77;73.69
35758;BME280;21879;50.110;18.900;2023-08-06T18:58:19;97354.65;;;16.81;73.34
35758;BME280;21879;50.110;18.900;2023-08-06T19:08:47;97360.58;;;16.66;73.01
35758;BME280;21879;50.110;18.900;2023-08-06T19:19:16;97365.38;;;16.55;73.18
35758;BME280;21879;50.110;18.900;2023-08-06T19:29:44;97368.81;;;16.50;73.59
35758;BME280;21879;50.110;18.900;2023-08-06T19:40:13;97368.84;;;16.43;73.66
35758;BME280;21879;50.110;18.900;2023-08-06T19:50:48;97376.99;;;16.45;74.01
35758;BME280;21879;50.110;18.900;2023-08-06T20:01:16;97384.95;;;16.53;74.09
35758;BME280;21879;50.110;18.900;2023-08-06T20:11:44;97383.39;;;16.59;74.11
35758;BME280;21879;50.110;18.900;2023-08-06T20:22:13;97384.14;;;16.58;73.90
35758;BME280;21879;50.110;18.900;2023-08-06T20:32:41;97384.77;;;16.40;73.88
35758;BME280;21879;50.110;18.900;2023-08-06T20:43:09;97385.91;;;16.39;74.39
35758;BME280;21879;50.110;18.900;2023-08-06T20:53:37;97386.48;;;16.28;74.32
35758;BME280;21879;50.110;18.900;2023-08-06T21:04:06;97386.14;;;16.21;74.79
35758;BME280;21879;50.110;18.900;2023-08-06T21:14:36;97391.43;;;16.11;74.99
35758;BME280;21879;50.110;18.900;2023-08-06T21:25:05;97390.23;;;16.04;75.10
35758;BME280;21879;50.110;18.900;2023-08-06T21:35:33;97386.05;;;16.06;75.52
35758;BME280;21879;50.110;18.900;2023-08-06T21:46:06;97377.09;;;16.13;75.58
35758;BME280;21879;50.110;18.900;2023-08-06T21:56:34;97370.48;;;16.15;75.30
35758;BME280;21879;50.110;18.900;2023-08-06T22:07:01;97382.22;;;16.16;75.44
35758;BME280;21879;50.110;18.900;2023-08-06T22:17:30;97386.86;;;16.17;75.27
35758;BME280;21879;50.110;18.900;2023-08-06T22:28:07;97398.07;;;16.18;75.22
35758;BME280;21879;50.110;18.900;2023-08-06T22:38:35;97387.77;;;16.17;75.31
35758;BME280;21879;50.110;18.900;2023-08-06T22:49:03;97382.00;;;16.17;75.32
35758;BME280;21879;50.110;18.900;2023-08-06T22:59:31;97383.52;;;16.34;75.47
35758;BME280;21879;50.110;18.900;2023-08-06T23:09:59;97394.77;;;16.40;75.12
35758;BME280;21879;50.110;18.900;2023-08-06T23:20:27;97407.90;;;16.34;74.97
35758;BME280;21879;50.110;18.900;2023-08-06T23:30:55;97422.47;;;16.17;75.17
35758;BME280;21879;50.110;18.900;2023-08-06T23:41:23;97427.23;;;16.24;75.64
35758;BME280;21879;50.110;18.900;2023-08-06T23:51:54;97428.92;;;16.38;75.73
